Time;durP1;ratioP1;P1;durP2;ratioP2;P2;SDS_P1;SDS_P2;PMS_P1;PMS_P2;Temp;Humidity;BMP_temperature;BMP_pressure;BME280_temperature;BME280_humidity;BME280_pressure;Samples;Min_cycle;Max_cycle;Signal;HPM_P1;HPM_P2
2021/11/05 00:01:21;;;;;;;27.38;12.57;;;;;;;;;;6229329;28;20073;-83
2021/11/05 00:04:23;;;;;;;25.77;13.23;;;;;;;;;;6222990;28;20114;-83
2021/11/05 00:07:24;;;;;;;29.70;13.10;;;;;;;;;;6244375;28;20041;-83
2021/11/05 00:10:26;;;;;;;33.33;14.18;;;;;;;;;;6247765;28;20054;-83
2021/11/05 00:13:28;;;;;;;27.48;12.80;;;;;;;;;;6239380;28;20177;-83
2021/11/05 00:16:30;;;;;;;29.73;13.45;;;;;;;;;;6221840;28;20052;-83
2021/11/05 00:19:31;;;;;;;32.88;13.10;;;;;;;;;;6218636;28;20084;-82
2021/11/05 00:22:34;;;;;;;31.33;12.82;;;;;;;;;;6236297;28;20105;-83
2021/11/05 00:25:36;;;;;;;31.55;13.52;;;;;;;;;;6246408;28;20112;-83
2021/11/05 00:28:37;;;;;;;31.67;12.98;;;;;;;;;;6235099;28;20038;-83
2021/11/05 00:31:39;;;;;;;22.23;10.90;;;;;;;;;;6219950;28;20048;-82
2021/11/05 00:34:40;;;;;;;22.35;11.05;;;;;;;;;;6235037;28;20082;-83
2021/11/05 00:37:42;;;;;;;22.90;11.35;;;;;;;;;;6247269;28;20041;-84
2021/11/05 00:40:44;;;;;;;23.17;10.65;;;;;;;;;;6245289;28;20135;-82
2021/11/05 00:43:46;;;;;;;21.35;9.48;;;;;;;;;;6244053;28;21149;-83
2021/11/05 00:46:47;;;;;;;23.40;9.85;;;;;;;;;;6247606;28;20042;-83
2021/11/05 00:49:49;;;;;;;23.73;10.63;;;;;;;;;;6238977;28;20030;-83
2021/11/05 00:52:51;;;;;;;21.08;10.07;;;;;;;;;;6244580;28;20098;-83
2021/11/05 00:55:52;;;;;;;27.38;10.45;;;;;;;;;;6247754;28;20048;-83
2021/11/05 00:58:54;;;;;;;23.70;10.60;;;;;;;;;;6246712;28;20056;-83
2021/11/05 01:01:56;;;;;;;23.55;9.68;;;;;;;;;;6245387;28;20045;-82
2021/11/05 01:04:57;;;;;;;21.90;9.35;;;;;;;;;;6240808;28;20741;-83
2021/11/05 01:08:00;;;;;;;19.77;9.52;;;;;;;;;;6245960;28;20053;-84
2021/11/05 01:11:01;;;;;;;22.07;9.37;;;;;;;;;;6227485;28;20083;-82
2021/11/05 01:14:04;;;;;;;22.35;9.85;;;;;;;;;;6242092;28;20132;-82
2021/11/05 01:17:05;;;;;;;19.83;8.90;;;;;;;;;;6238439;28;20049;-83
2021/11/05 01:20:11;;;;;;;22.02;9.05;;;;;;;;;;6240250;28;20059;-84
2021/11/05 01:23:12;;;;;;;21.08;9.30;;;;;;;;;;6241078;28;20099;-84
2021/11/05 01:26:14;;;;;;;20.63;9.48;;;;;;;;;;6241916;28;20124;-84
2021/11/05 01:29:16;;;;;;;24.95;10.32;;;;;;;;;;6237647;28;20075;-82
2021/11/05 01:32:17;;;;;;;24.58;10.82;;;;;;;;;;6242351;28;20391;-82
2021/11/05 01:35:19;;;;;;;23.50;10.35;;;;;;;;;;6238587;28;20045;-83
2021/11/05 01:38:21;;;;;;;24.52;10.00;;;;;;;;;;6242199;28;20059;-81
2021/11/05 01:41:24;;;;;;;21.17;9.05;;;;;;;;;;6242327;28;20046;-84
2021/11/05 01:44:26;;;;;;;18.92;9.23;;;;;;;;;;6217245;28;20059;-84
2021/11/05 01:47:28;;;;;;;22.25;10.45;;;;;;;;;;6245701;28;20042;-84
2021/11/05 01:50:30;;;;;;;24.50;9.68;;;;;;;;;;6216229;28;20058;-84
2021/11/05 01:53:32;;;;;;;22.15;8.98;;;;;;;;;;6233662;28;20192;-84
2021/11/05 01:56:33;;;;;;;18.58;8.45;;;;;;;;;;6241373;28;20195;-84
2021/11/05 01:59:37;;;;;;;19.83;9.75;;;;;;;;;;6199252;28;20052;-84
2021/11/05 02:02:39;;;;;;;20.17;8.38;;;;;;;;;;6216351;28;20060;-82
2021/11/05 02:05:46;;;;;;;19.73;9.57;;;;;;;;;;6211701;28;20144;-84
2021/11/05 02:08:51;;;;;;;18.10;8.45;;;;;;;;;;6190619;28;1074760;-82
2021/11/05 02:11:56;;;;;;;20.27;8.85;;;;;;;;;;6247280;28;20124;-83
2021/11/05 02:14:59;;;;;;;23.40;10.02;;;;;;;;;;6231298;28;20113;-83
2021/11/05 02:18:00;;;;;;;21.40;9.73;;;;;;;;;;6246971;28;20054;-82
2021/11/05 02:21:02;;;;;;;21.95;9.70;;;;;;;;;;6238264;28;20551;-83
2021/11/05 02:24:04;;;;;;;21.05;9.57;;;;;;;;;;6209540;28;20046;-83
2021/11/05 02:27:06;;;;;;;38.22;9.93;;;;;;;;;;6220834;28;20410;-83
2021/11/05 02:30:10;;;;;;;24.10;9.88;;;;;;;;;;6214645;28;20077;-83
2021/11/05 02:33:12;;;;;;;23.67;9.13;;;;;;;;;;6219067;28;20053;-82
2021/11/05 02:36:14;;;;;;;22.25;9.57;;;;;;;;;;6209183;28;20049;-83
2021/11/05 02:39:15;;;;;;;21.88;9.25;;;;;;;;;;6211593;28;20060;-83
2021/11/05 02:42:18;;;;;;;23.98;9.98;;;;;;;;;;6216701;28;20042;-83
2021/11/05 02:45:20;;;;;;;19.42;9.27;;;;;;;;;;6222910;28;20119;-82
2021/11/05 02:48:21;;;;;;;20.73;8.32;;;;;;;;;;6219894;28;20129;-83
2021/11/05 02:51:23;;;;;;;21.23;8.98;;;;;;;;;;6213944;28;20177;-83
2021/11/05 02:54:24;;;;;;;21.70;8.60;;;;;;;;;;6240339;28;20073;-83
2021/11/05 02:57:26;;;;;;;19.73;8.80;;;;;;;;;;6220700;28;20049;-84
2021/11/05 03:00:28;;;;;;;19.85;8.30;;;;;;;;;;6230635;28;20069;-83
2021/11/05 03:03:29;;;;;;;20.05;9.02;;;;;;;;;;6204518;28;20045;-83
2021/11/05 03:06:36;;;;;;;19.02;7.57;;;;;;;;;;6236121;28;20049;-84
2021/11/05 03:09:40;;;;;;;26.88;9.05;;;;;;;;;;6207223;28;20519;-84
2021/11/05 03:12:44;;;;;;;18.10;8.45;;;;;;;;;;6224682;28;20042;-83
2021/11/05 03:15:46;;;;;;;21.58;9.52;;;;;;;;;;6232081;28;20176;-83
2021/11/05 03:18:48;;;;;;;20.35;9.27;;;;;;;;;;6250747;28;20120;-83
2021/11/05 03:21:50;;;;;;;19.60;9.25;;;;;;;;;;6234858;28;20053;-83
2021/11/05 03:24:52;;;;;;;22.27;9.50;;;;;;;;;;6249434;28;20065;-83
2021/11/05 03:27:53;;;;;;;23.30;8.98;;;;;;;;;;6236931;28;20494;-83
2021/11/05 03:30:55;;;;;;;21.90;10.00;;;;;;;;;;6223739;28;20049;-83
2021/11/05 03:33:57;;;;;;;23.85;9.98;;;;;;;;;;6222683;28;20046;-82
2021/11/05 03:36:58;;;;;;;23.77;10.05;;;;;;;;;;6232788;28;21212;-83
2021/11/05 03:40:06;;;;;;;24.17;9.77;;;;;;;;;;6222189;28;20624;-83
2021/11/05 03:43:07;;;;;;;25.27;9.57;;;;;;;;;;6220813;28;20046;-83
2021/11/05 03:46:09;;;;;;;24.50;10.13;;;;;;;;;;6208373;28;20120;-83
2021/11/05 03:49:11;;;;;;;23.13;9.27;;;;;;;;;;6225951;28;20093;-84
2021/11/05 03:52:13;;;;;;;26.08;10.00;;;;;;;;;;6233225;28;20042;-84
2021/11/05 03:55:16;;;;;;;22.90;10.10;;;;;;;;;;6247342;28;20164;-84
2021/11/05 03:58:17;;;;;;;23.10;9.55;;;;;;;;;;6211672;28;20077;-84
2021/11/05 04:01:20;;;;;;;24.33;9.95;;;;;;;;;;6227420;28;20053;-83
2021/11/05 04:04:22;;;;;;;30.13;10.93;;;;;;;;;;6241253;28;20057;-83
2021/11/05 04:07:24;;;;;;;28.50;10.95;;;;;;;;;;6220588;28;20042;-84
2021/11/05 04:10:26;;;;;;;28.05;9.63;;;;;;;;;;6248825;28;20124;-84
2021/11/05 04:13:27;;;;;;;24.42;11.15;;;;;;;;;;6216916;28;20048;-84
2021/11/05 04:16:29;;;;;;;27.88;11.00;;;;;;;;;;6239114;28;20114;-83
2021/11/05 04:19:30;;;;;;;25.75;10.77;;;;;;;;;;6241179;28;20052;-83
2021/11/05 04:22:32;;;;;;;28.77;10.65;;;;;;;;;;6227329;28;20172;-84
2021/11/05 04:25:35;;;;;;;26.65;10.95;;;;;;;;;;6228912;28;20124;-84
2021/11/05 04:28:40;;;;;;;30.65;10.60;;;;;;;;;;6237827;28;20056;-83
2021/11/05 04:31:42;;;;;;;29.25;10.48;;;;;;;;;;6236505;28;20140;-83
2021/11/05 04:34:44;;;;;;;30.88;11.60;;;;;;;;;;6236078;28;20129;-83
2021/11/05 04:37:45;;;;;;;32.08;11.95;;;;;;;;;;6226733;28;20065;-83
2021/11/05 04:40:47;;;;;;;31.70;11.98;;;;;;;;;;6218842;28;20128;-82
2021/11/05 04:43:50;;;;;;;34.75;12.38;;;;;;;;;;6211930;28;20053;-84
2021/11/05 04:46:52;;;;;;;29.23;11.30;;;;;;;;;;6212624;28;20046;-84
2021/11/05 04:49:53;;;;;;;29.75;12.05;;;;;;;;;;6220325;28;20117;-83
2021/11/05 04:52:55;;;;;;;34.30;11.65;;;;;;;;;;6245979;28;20410;-83
2021/11/05 04:55:57;;;;;;;32.05;12.65;;;;;;;;;;6199705;28;20048;-84
2021/11/05 04:58:58;;;;;;;37.60;13.38;;;;;;;;;;6219233;28;20424;-83
2021/11/05 05:02:00;;;;;;;39.85;13.85;;;;;;;;;;6220709;28;20110;-82
2021/11/05 05:05:02;;;;;;;44.05;14.35;;;;;;;;;;6212400;28;20526;-83
2021/11/05 05:08:04;;;;;;;41.78;13.93;;;;;;;;;;6198280;28;20054;-83
2021/11/05 05:11:06;;;;;;;38.67;14.52;;;;;;;;;;6212683;28;20128;-82
2021/11/05 05:14:08;;;;;;;43.65;14.73;;;;;;;;;;6206235;28;20115;-82
2021/11/05 05:17:10;;;;;;;47.38;14.45;;;;;;;;;;6241533;28;20065;-82
2021/11/05 05:20:14;;;;;;;44.25;14.88;;;;;;;;;;6218754;28;20037;-83
2021/11/05 05:23:16;;;;;;;43.00;14.75;;;;;;;;;;6220534;28;20048;-83
2021/11/05 05:26:17;;;;;;;44.83;14.30;;;;;;;;;;6222762;28;20052;-83
2021/11/05 05:29:19;;;;;;;46.53;15.85;;;;;;;;;;6227009;28;20497;-83
2021/11/05 05:32:21;;;;;;;51.35;15.77;;;;;;;;;;6235033;28;20132;-83
2021/11/05 05:35:22;;;;;;;47.03;14.63;;;;;;;;;;6227664;28;20498;-83
2021/11/05 05:38:24;;;;;;;52.03;16.23;;;;;;;;;;6242913;28;20049;-83
2021/11/05 05:41:25;;;;;;;42.33;14.23;;;;;;;;;;6247085;28;20491;-83
2021/11/05 05:44:27;;;;;;;41.60;14.88;;;;;;;;;;6230217;28;20049;-83
2021/11/05 05:47:28;;;;;;;40.67;13.95;;;;;;;;;;6225747;28;20049;-83
2021/11/05 05:50:30;;;;;;;37.95;12.65;;;;;;;;;;6215902;28;20183;-83
2021/11/05 05:53:32;;;;;;;40.58;14.32;;;;;;;;;;6217326;28;20049;-83
2021/11/05 05:56:33;;;;;;;46.88;15.52;;;;;;;;;;6215502;28;20048;-83
2021/11/05 05:59:35;;;;;;;41.53;14.05;;;;;;;;;;6211820;28;20038;-82
2021/11/05 06:02:39;;;;;;;42.28;13.02;;;;;;;;;;6224197;28;20113;-83
2021/11/05 06:05:40;;;;;;;42.35;14.98;;;;;;;;;;6218340;28;20121;-83
2021/11/05 06:08:42;;;;;;;42.42;13.13;;;;;;;;;;6219169;28;20527;-83
2021/11/05 06:11:44;;;;;;;42.45;12.82;;;;;;;;;;6218217;28;20052;-83
2021/11/05 06:14:46;;;;;;;41.22;13.85;;;;;;;;;;6214077;28;20042;-82
2021/11/05 06:17:47;;;;;;;45.65;13.65;;;;;;;;;;6177748;28;20073;-83
2021/11/05 06:20:49;;;;;;;44.42;12.82;;;;;;;;;;6200880;28;20125;-83
2021/11/05 06:23:52;;;;;;;42.15;14.27;;;;;;;;;;6236063;28;20046;-82
2021/11/05 06:26:54;;;;;;;45.08;14.38;;;;;;;;;;6243591;28;20049;-83
2021/11/05 06:29:56;;;;;;;42.63;14.73;;;;;;;;;;6238482;28;20077;-82
2021/11/05 06:32:59;;;;;;;38.60;13.40;;;;;;;;;;6242180;28;20051;-80
2021/11/05 06:36:01;;;;;;;45.72;14.98;;;;;;;;;;6220231;28;20045;-79
2021/11/05 06:39:04;;;;;;;47.10;15.50;;;;;;;;;;6199752;28;20109;-83
2021/11/05 06:42:06;;;;;;;43.08;14.95;;;;;;;;;;6213886;28;20154;-80
2021/11/05 06:45:09;;;;;;;40.03;13.55;;;;;;;;;;6213044;28;20193;-83
2021/11/05 06:48:11;;;;;;;43.13;14.45;;;;;;;;;;6207787;28;20132;-83
2021/11/05 06:51:13;;;;;;;43.22;14.00;;;;;;;;;;6219318;28;20442;-83
2021/11/05 06:54:15;;;;;;;48.72;15.68;;;;;;;;;;6207200;28;20105;-82
2021/11/05 06:57:18;;;;;;;43.38;14.30;;;;;;;;;;6224671;28;20056;-84
2021/11/05 07:00:20;;;;;;;41.58;13.30;;;;;;;;;;6216126;28;20050;-82
2021/11/05 07:03:22;;;;;;;41.00;14.30;;;;;;;;;;6225417;28;20050;-85
2021/11/05 07:06:23;;;;;;;39.50;13.15;;;;;;;;;;6225330;28;20062;-82
2021/11/05 07:09:25;;;;;;;39.83;13.82;;;;;;;;;;6226104;28;20045;-83
2021/11/05 07:12:27;;;;;;;40.30;13.57;;;;;;;;;;6203854;28;20049;-82
2021/11/05 07:15:29;;;;;;;36.88;13.55;;;;;;;;;;6236429;28;20052;-83
2021/11/05 07:18:32;;;;;;;37.22;12.40;;;;;;;;;;6250201;28;20071;-80
2021/11/05 07:21:35;;;;;;;43.75;13.70;;;;;;;;;;6222072;28;20109;-82
2021/11/05 07:24:38;;;;;;;37.28;13.25;;;;;;;;;;6224539;28;20046;-80
2021/11/05 07:27:41;;;;;;;33.70;12.85;;;;;;;;;;6226047;28;20117;-82
2021/11/05 07:30:43;;;;;;;33.90;11.45;;;;;;;;;;6226291;28;20072;-82
2021/11/05 07:33:44;;;;;;;39.20;13.32;;;;;;;;;;6228075;28;20104;-83
2021/11/05 07:36:46;;;;;;;34.15;12.43;;;;;;;;;;6223846;28;20077;-83
2021/11/05 07:39:48;;;;;;;42.00;13.82;;;;;;;;;;6228336;28;20129;-83
2021/11/05 07:42:50;;;;;;;33.00;11.93;;;;;;;;;;6219385;28;20102;-83
2021/11/05 07:45:51;;;;;;;31.10;11.32;;;;;;;;;;6223764;28;20125;-83
2021/11/05 07:48:53;;;;;;;33.60;11.05;;;;;;;;;;6224496;28;20060;-83
2021/11/05 07:51:55;;;;;;;32.28;12.13;;;;;;;;;;6216463;28;20046;-84
2021/11/05 07:54:57;;;;;;;29.08;11.38;;;;;;;;;;6223426;28;20137;-84
2021/11/05 07:57:58;;;;;;;29.40;11.30;;;;;;;;;;6215175;28;20054;-84
2021/11/05 08:01:00;;;;;;;31.08;11.23;;;;;;;;;;6243128;28;20157;-81
2021/11/05 08:04:02;;;;;;;29.92;10.45;;;;;;;;;;6246153;28;20399;-84
2021/11/05 08:07:03;;;;;;;28.65;10.88;;;;;;;;;;6182425;28;20177;-85
2021/11/05 08:10:05;;;;;;;33.03;11.77;;;;;;;;;;6198583;28;20054;-84
2021/11/05 08:13:08;;;;;;;28.70;10.73;;;;;;;;;;6218093;28;20418;-85
2021/11/05 08:16:10;;;;;;;30.02;11.63;;;;;;;;;;6244438;28;20059;-85
2021/11/05 08:19:11;;;;;;;29.17;10.43;;;;;;;;;;6235369;28;20085;-85
2021/11/05 08:22:17;;;;;;;34.92;11.45;;;;;;;;;;6204224;28;20052;-85
2021/11/05 08:25:20;;;;;;;32.42;11.07;;;;;;;;;;6197386;28;20049;-84
2021/11/05 08:28:22;;;;;;;27.52;11.00;;;;;;;;;;6228489;28;20042;-84
2021/11/05 08:31:23;;;;;;;28.77;11.50;;;;;;;;;;6230672;28;20173;-84
2021/11/05 08:34:25;;;;;;;28.77;10.25;;;;;;;;;;6238297;28;20057;-85
2021/11/05 08:37:27;;;;;;;25.73;9.57;;;;;;;;;;6246642;28;20103;-84
2021/11/05 08:40:28;;;;;;;27.63;9.90;;;;;;;;;;6218226;28;20105;-84
2021/11/05 08:43:32;;;;;;;25.98;9.98;;;;;;;;;;6236947;28;20121;-84
2021/11/05 08:46:34;;;;;;;31.10;10.85;;;;;;;;;;6221733;28;20133;-85
2021/11/05 08:49:38;;;;;;;25.75;10.02;;;;;;;;;;6234059;28;20054;-85
2021/11/05 08:52:40;;;;;;;25.60;10.73;;;;;;;;;;6241887;28;20037;-85
2021/11/05 08:55:42;;;;;;;28.15;11.27;;;;;;;;;;6241361;28;20088;-84
2021/11/05 08:58:46;;;;;;;28.60;11.40;;;;;;;;;;6242244;28;20045;-85
2021/11/05 09:01:48;;;;;;;25.88;9.82;;;;;;;;;;6248919;28;20041;-85
2021/11/05 09:04:49;;;;;;;33.72;11.52;;;;;;;;;;6240899;28;20057;-84
2021/11/05 09:07:51;;;;;;;29.55;10.55;;;;;;;;;;6230380;28;20101;-84
2021/11/05 09:10:53;;;;;;;31.55;11.93;;;;;;;;;;6251092;28;20124;-84
2021/11/05 09:13:55;;;;;;;32.22;12.05;;;;;;;;;;6244386;28;20124;-84
2021/11/05 09:16:57;;;;;;;28.80;11.50;;;;;;;;;;6250429;28;20347;-84
2021/11/05 09:19:59;;;;;;;30.98;11.90;;;;;;;;;;6248022;28;21210;-84
2021/11/05 09:23:00;;;;;;;30.95;12.38;;;;;;;;;;6247764;28;20044;-84
2021/11/05 09:26:02;;;;;;;26.83;10.35;;;;;;;;;;6251093;28;20045;-83
2021/11/05 09:29:04;;;;;;;26.35;10.55;;;;;;;;;;6249973;28;20537;-83
2021/11/05 09:32:05;;;;;;;28.42;10.85;;;;;;;;;;6249239;28;20058;-83
2021/11/05 09:35:08;;;;;;;28.55;11.25;;;;;;;;;;6241776;28;20133;-85
2021/11/05 09:38:11;;;;;;;24.75;9.75;;;;;;;;;;6247649;28;20049;-85
2021/11/05 09:41:12;;;;;;;23.70;9.98;;;;;;;;;;6229801;28;20462;-84
2021/11/05 09:44:14;;;;;;;24.23;10.98;;;;;;;;;;6239028;28;20056;-82
2021/11/05 09:47:16;;;;;;;25.30;9.63;;;;;;;;;;6242928;28;20076;-83
2021/11/05 09:50:21;;;;;;;23.92;8.93;;;;;;;;;;6228554;28;20112;-82
2021/11/05 09:53:25;;;;;;;22.77;9.25;;;;;;;;;;6199492;28;20060;-83
2021/11/05 09:56:26;;;;;;;;;;;;;;;;;;6204688;28;20467;-82
2021/11/05 09:59:29;;;;;;;25.00;9.57;;;;;;;;;;6200717;28;20407;-84
2021/11/05 10:02:31;;;;;;;23.27;9.30;;;;;;;;;;6206771;28;20057;-83
2021/11/05 10:05:34;;;;;;;24.60;10.10;;;;;;;;;;6220576;28;20068;-83
2021/11/05 10:08:37;;;;;;;23.35;10.30;;;;;;;;;;6225710;28;20565;-83
2021/11/05 10:11:39;;;;;;;25.08;9.80;;;;;;;;;;6228098;28;20045;-84
2021/11/05 10:14:42;;;;;;;21.20;9.23;;;;;;;;;;6228399;28;20074;-83
2021/11/05 10:17:44;;;;;;;21.75;9.10;;;;;;;;;;6230708;28;20046;-83
2021/11/05 10:20:48;;;;;;;16.77;8.00;;;;;;;;;;6242375;28;20041;-83
2021/11/05 10:23:50;;;;;;;16.40;7.47;;;;;;;;;;6250250;28;20048;-83
2021/11/05 10:26:52;;;;;;;17.13;7.93;;;;;;;;;;6249977;28;20056;-82
2021/11/05 10:29:53;;;;;;;15.88;7.28;;;;;;;;;;6245103;28;20101;-83
2021/11/05 10:32:57;;;;;;;17.48;7.55;;;;;;;;;;6248354;28;20128;-83
2021/11/05 10:36:04;;;;;;;15.27;6.93;;;;;;;;;;6228800;28;20038;-84
2021/11/05 10:39:08;;;;;;;16.73;7.00;;;;;;;;;;6246783;28;20046;-84
2021/11/05 10:42:09;;;;;;;15.20;6.97;;;;;;;;;;6248800;28;20041;-82
2021/11/05 10:45:12;;;;;;;13.48;6.85;;;;;;;;;;6247378;28;20045;-81
2021/11/05 10:48:15;;;;;;;16.42;6.88;;;;;;;;;;6227802;28;20132;-82
2021/11/05 10:51:21;;;;;;;15.40;7.15;;;;;;;;;;6242301;28;20069;-82
2021/11/05 10:54:22;;;;;;;15.32;7.07;;;;;;;;;;6247243;28;20037;-82
2021/11/05 10:57:55;;;;;;;14.18;6.32;;;;;;;;;;6247276;28;20101;-83
2021/11/05 11:01:20;;;;;;;20.48;7.10;;;;;;;;;;6237299;28;20053;-80
2021/11/05 11:04:27;;;;;;;14.80;6.82;;;;;;;;;;6241869;28;20064;-82
2021/11/05 11:07:36;;;;;;;15.48;6.53;;;;;;;;;;6245798;28;20041;-83
2021/11/05 11:10:39;;;;;;;13.63;5.57;;;;;;;;;;6250306;28;20561;-83
2021/11/05 11:13:46;;;;;;;34.60;18.27;;;;;;;;;;6238989;28;20046;-83
2021/11/05 11:16:56;;;;;;;20.55;6.47;;;;;;;;;;6249918;28;20041;-82
2021/11/05 11:19:57;;;;;;;12.55;5.57;;;;;;;;;;6243696;28;20119;-82
2021/11/05 11:23:00;;;;;;;11.38;5.53;;;;;;;;;;6222201;28;20049;-83
2021/11/05 11:26:02;;;;;;;13.10;5.45;;;;;;;;;;6239756;28;20400;-82
2021/11/05 11:29:07;;;;;;;12.80;5.30;;;;;;;;;;6225173;28;22444;-82
2021/11/05 11:32:11;;;;;;;12.45;5.60;;;;;;;;;;6231309;28;20645;-80
2021/11/05 11:35:13;;;;;;;15.38;5.85;;;;;;;;;;6245436;28;20037;-83
2021/11/05 11:38:17;;;;;;;12.25;5.25;;;;;;;;;;6272008;28;20109;-84
2021/11/05 11:41:19;;;;;;;;;;;;;;;;;;6274138;28;20044;-83
2021/11/05 11:44:25;;;;;;;13.77;5.88;;;;;;;;;;6240957;28;20426;-84
2021/11/05 11:47:43;;;;;;;12.10;4.90;;;;;;;;;;6226939;28;20048;-84
2021/11/05 11:50:44;;;;;;;11.55;5.45;;;;;;;;;;6225628;28;20060;-84
2021/11/05 11:53:48;;;;;;;10.48;4.97;;;;;;;;;;6207037;28;20106;-83
2021/11/05 11:56:52;;;;;;;9.80;4.90;;;;;;;;;;6198985;28;20411;-84
2021/11/05 12:00:06;;;;;;;13.23;5.13;;;;;;;;;;6203137;28;20520;-83
2021/11/05 12:03:31;;;;;;;11.45;4.32;;;;;;;;;;6202666;28;20050;-83
2021/11/05 12:06:56;;;;;;;10.07;5.03;;;;;;;;;;6208013;28;20046;-84
2021/11/05 12:10:26;;;;;;;9.10;4.22;;;;;;;;;;6200240;28;20048;-84
2021/11/05 12:13:34;;;;;;;11.02;4.95;;;;;;;;;;6203387;28;20050;-82
2021/11/05 12:16:37;;;;;;;9.20;4.25;;;;;;;;;;6189286;28;20056;-85
2021/11/05 12:19:43;;;;;;;10.80;4.43;;;;;;;;;;6198992;28;20050;-84
2021/11/05 12:23:10;;;;;;;11.23;4.97;;;;;;;;;;6197669;28;20042;-84
2021/11/05 12:26:12;;;;;;;13.02;4.72;;;;;;;;;;6197981;28;20052;-85
2021/11/05 12:29:32;;;;;;;10.93;5.10;;;;;;;;;;6197425;28;20147;-84
2021/11/05 12:32:35;;;;;;;9.73;4.47;;;;;;;;;;6243910;28;20042;-84
2021/11/05 12:35:47;;;;;;;13.13;5.03;;;;;;;;;;6208996;28;20045;-84
2021/11/05 12:39:05;;;;;;;8.30;4.63;;;;;;;;;;6238322;28;20052;-84
2021/11/05 12:42:09;;;;;;;12.50;5.15;;;;;;;;;;6239862;28;20057;-84
2021/11/05 12:45:11;;;;;;;11.20;5.00;;;;;;;;;;6211382;28;20054;-82
2021/11/05 12:48:13;;;;;;;10.68;5.30;;;;;;;;;;6223552;28;20052;-83
2021/11/05 12:51:41;;;;;;;9.25;4.90;;;;;;;;;;6223330;28;20148;-85
2021/11/05 12:54:47;;;;;;;9.52;4.13;;;;;;;;;;6211467;28;20054;-84
2021/11/05 12:57:51;;;;;;;8.68;4.03;;;;;;;;;;6196763;28;20104;-84
2021/11/05 13:00:52;;;;;;;8.93;4.07;;;;;;;;;;6225629;28;20079;-84
2021/11/05 13:04:13;;;;;;;6.53;3.90;;;;;;;;;;6245254;28;20048;-84
2021/11/05 13:07:15;;;;;;;8.68;4.20;;;;;;;;;;6199664;28;20133;-84
2021/11/05 13:10:28;;;;;;;6.88;3.97;;;;;;;;;;6200975;28;20066;-83
2021/11/05 13:13:29;;;;;;;7.35;3.83;;;;;;;;;;6200660;28;20129;-85
2021/11/05 13:16:51;;;;;;;8.70;4.20;;;;;;;;;;6224544;28;20049;-85
2021/11/05 13:19:59;;;;;;;7.30;3.55;;;;;;;;;;6237578;28;20042;-84
2021/11/05 13:23:03;;;;;;;8.00;4.00;;;;;;;;;;6246201;28;20487;-85
2021/11/05 13:26:05;;;;;;;9.73;4.72;;;;;;;;;;6251420;28;20083;-83
2021/11/05 13:29:07;;;;;;;12.18;6.68;;;;;;;;;;6225991;28;20053;-82
2021/11/05 13:32:21;;;;;;;11.65;6.53;;;;;;;;;;6231643;28;20073;-83
2021/11/05 13:35:23;;;;;;;11.10;5.38;;;;;;;;;;6229581;28;20152;-83
2021/11/05 13:38:29;;;;;;;10.25;4.93;;;;;;;;;;6223896;28;20061;-83
2021/11/05 13:41:30;;;;;;;12.00;5.35;;;;;;;;;;6206903;28;20057;-82
2021/11/05 13:44:32;;;;;;;11.88;5.03;;;;;;;;;;6220564;28;20132;-81
2021/11/05 13:47:40;;;;;;;11.48;5.43;;;;;;;;;;6223140;28;20100;-83
2021/11/05 13:50:41;;;;;;;11.10;5.13;;;;;;;;;;6228435;28;20457;-83
2021/11/05 13:53:48;;;;;;;12.48;5.10;;;;;;;;;;6243812;28;20136;-83
2021/11/05 13:56:51;;;;;;;11.82;5.40;;;;;;;;;;6248596;28;20049;-81
2021/11/05 13:59:59;;;;;;;11.50;5.20;;;;;;;;;;6230233;28;20137;-84
2021/11/05 14:03:29;;;;;;;14.70;5.80;;;;;;;;;;6229562;28;20491;-81
2021/11/05 14:06:42;;;;;;;13.57;6.22;;;;;;;;;;6229951;28;20461;-82
2021/11/05 14:09:44;;;;;;;12.15;5.18;;;;;;;;;;6241130;28;20076;-82
2021/11/05 14:12:56;;;;;;;11.00;5.55;;;;;;;;;;6238109;28;20042;-82
2021/11/05 14:16:11;;;;;;;11.60;5.20;;;;;;;;;;6224891;28;20129;-83
2021/11/05 14:19:16;;;;;;;10.60;5.63;;;;;;;;;;6237984;28;20072;-82
2021/11/05 14:22:19;;;;;;;13.52;5.68;;;;;;;;;;6221965;28;20103;-82
2021/11/05 14:25:22;;;;;;;12.52;5.53;;;;;;;;;;6242229;28;20148;-82
2021/11/05 14:28:25;;;;;;;12.68;5.43;;;;;;;;;;6231641;28;20499;-83
2021/11/05 14:31:27;;;;;;;14.05;6.53;;;;;;;;;;6199275;28;20065;-83
2021/11/05 14:34:51;;;;;;;9.75;5.28;;;;;;;;;;6182019;28;20077;-83
2021/11/05 14:37:54;;;;;;;;;;;;;;;;;;6194139;28;20189;-83
2021/11/05 14:40:59;;;;;;;11.85;5.82;;;;;;;;;;6189829;28;19929;-82
2021/11/05 14:44:03;;;;;;;9.43;4.68;;;;;;;;;;6182833;28;20081;-82
2021/11/05 14:47:05;;;;;;;11.07;5.57;;;;;;;;;;6203816;28;20093;-84
2021/11/05 14:50:11;;;;;;;11.73;5.95;;;;;;;;;;6207476;28;20532;-85
2021/11/05 14:53:27;;;;;;;13.80;5.97;;;;;;;;;;6207611;28;20046;-84
2021/11/05 14:56:31;;;;;;;10.43;5.93;;;;;;;;;;6215831;28;20123;-84
2021/11/05 14:59:33;;;;;;;10.65;5.22;;;;;;;;;;6241246;28;20048;-84
2021/11/05 15:02:37;;;;;;;14.05;5.47;;;;;;;;;;6212864;28;20045;-83
2021/11/05 15:05:49;;;;;;;10.68;5.72;;;;;;;;;;6217340;28;20049;-83
2021/11/05 15:08:52;;;;;;;14.63;6.13;;;;;;;;;;6228293;28;20125;-85
2021/11/05 15:11:53;;;;;;;11.65;6.10;;;;;;;;;;6206265;28;20057;-84
2021/11/05 15:14:55;;;;;;;11.98;6.10;;;;;;;;;;6221495;28;20082;-85
2021/11/05 15:17:57;;;;;;;15.30;7.85;;;;;;;;;;6249844;28;20048;-83
2021/11/05 15:20:58;;;;;;;13.73;8.18;;;;;;;;;;6226664;28;20050;-85
2021/11/05 15:24:03;;;;;;;16.15;8.32;;;;;;;;;;6222843;28;20124;-83
2021/11/05 15:27:04;;;;;;;12.75;6.70;;;;;;;;;;6238591;28;20506;-85
2021/11/05 15:30:09;;;;;;;9.70;5.68;;;;;;;;;;6220380;28;20133;-85
2021/11/05 15:33:13;;;;;;;14.90;5.80;;;;;;;;;;6220958;28;20100;-85
2021/11/05 15:36:15;;;;;;;11.88;5.70;;;;;;;;;;6213816;28;20106;-83
2021/11/05 15:39:16;;;;;;;13.90;5.78;;;;;;;;;;6241460;28;20045;-83
2021/11/05 15:42:18;;;;;;;10.38;5.45;;;;;;;;;;6246028;28;20053;-83
2021/11/05 15:45:20;;;;;;;12.63;5.60;;;;;;;;;;6212536;28;20057;-83
2021/11/05 15:48:24;;;;;;;12.25;5.50;;;;;;;;;;6261241;28;20505;-84
2021/11/05 15:51:26;;;;;;;11.27;5.68;;;;;;;;;;6235741;28;20052;-83
2021/11/05 15:54:28;;;;;;;12.20;5.35;;;;;;;;;;6264535;28;20104;-84
2021/11/05 15:57:31;;;;;;;13.57;5.80;;;;;;;;;;6270716;28;20052;-84
2021/11/05 16:00:36;;;;;;;10.57;5.07;;;;;;;;;;6252628;28;20064;-82
2021/11/05 16:03:40;;;;;;;9.00;5.03;;;;;;;;;;6233228;28;20056;-84
2021/11/05 16:06:42;;;;;;;9.48;5.10;;;;;;;;;;6231805;28;20068;-84
2021/11/05 16:09:44;;;;;;;13.98;5.95;;;;;;;;;;6252109;28;20041;-83
2021/11/05 16:12:46;;;;;;;11.80;5.35;;;;;;;;;;6227118;28;20052;-85
2021/11/05 16:15:48;;;;;;;12.30;5.47;;;;;;;;;;6221363;28;20030;-84
2021/11/05 16:18:50;;;;;;;10.30;4.70;;;;;;;;;;6250144;28;20105;-83
2021/11/05 16:21:52;;;;;;;9.57;4.63;;;;;;;;;;6232123;28;20084;-84
2021/11/05 16:24:53;;;;;;;9.07;4.78;;;;;;;;;;6222097;28;20049;-83
2021/11/05 16:27:58;;;;;;;13.82;7.40;;;;;;;;;;6226869;28;20045;-84
2021/11/05 16:31:00;;;;;;;20.98;10.57;;;;;;;;;;6242132;28;20141;-85
2021/11/05 16:34:02;;;;;;;9.80;5.57;;;;;;;;;;6211335;28;20046;-82
2021/11/05 16:37:04;;;;;;;9.55;5.20;;;;;;;;;;6219615;28;20054;-83
2021/11/05 16:40:07;;;;;;;9.73;4.78;;;;;;;;;;6217049;28;20187;-83
2021/11/05 16:43:09;;;;;;;10.93;4.72;;;;;;;;;;6244305;28;20065;-83
2021/11/05 16:46:10;;;;;;;8.07;4.93;;;;;;;;;;6216280;28;20486;-84
2021/11/05 16:49:12;;;;;;;11.73;5.90;;;;;;;;;;6225968;28;20037;-83
2021/11/05 16:52:15;;;;;;;12.73;5.78;;;;;;;;;;6214949;28;20371;-83
2021/11/05 16:55:16;;;;;;;10.48;5.80;;;;;;;;;;6226479;28;20061;-83
2021/11/05 16:58:18;;;;;;;10.85;5.32;;;;;;;;;;6221944;28;20388;-83
2021/11/05 17:01:23;;;;;;;9.65;5.13;;;;;;;;;;6237707;28;20060;-84
2021/11/05 17:04:25;;;;;;;19.10;8.88;;;;;;;;;;6222603;28;20759;-84
2021/11/05 17:07:27;;;;;;;17.02;9.18;;;;;;;;;;6235679;28;20053;-83
2021/11/05 17:10:33;;;;;;;31.50;16.88;;;;;;;;;;6239840;28;20049;-83
2021/11/05 17:13:38;;;;;;;13.07;8.80;;;;;;;;;;6214367;28;20066;-82
2021/11/05 17:16:40;;;;;;;12.02;8.15;;;;;;;;;;6213985;28;20107;-82
2021/11/05 17:19:42;;;;;;;17.85;10.45;;;;;;;;;;6233740;28;20064;-84
2021/11/05 17:22:44;;;;;;;13.10;9.30;;;;;;;;;;6214508;28;20057;-83
2021/11/05 17:25:46;;;;;;;18.90;8.40;;;;;;;;;;6214895;28;20136;-84
2021/11/05 17:28:49;;;;;;;15.23;9.27;;;;;;;;;;6207911;28;20123;-84
2021/11/05 17:31:53;;;;;;;13.18;8.55;;;;;;;;;;6224081;28;20483;-82
2021/11/05 17:34:55;;;;;;;21.58;11.85;;;;;;;;;;6216678;28;20583;-84
2021/11/05 17:37:58;;;;;;;14.77;7.93;;;;;;;;;;6195412;28;20046;-84
2021/11/05 17:41:00;;;;;;;13.35;7.10;;;;;;;;;;6195311;28;20181;-85
2021/11/05 17:44:02;;;;;;;14.73;7.68;;;;;;;;;;6194696;28;20180;-83
2021/11/05 17:47:03;;;;;;;14.50;7.90;;;;;;;;;;6226565;28;20057;-84
2021/11/05 17:50:07;;;;;;;21.02;8.25;;;;;;;;;;6218561;28;20046;-84
2021/11/05 17:53:08;;;;;;;20.77;11.85;;;;;;;;;;6211837;28;20415;-84
2021/11/05 17:56:10;;;;;;;25.73;12.98;;;;;;;;;;6198336;28;20073;-84
2021/11/05 17:59:14;;;;;;;22.23;9.07;;;;;;;;;;6222115;28;20478;-82